createdAt,value
2022-08-07T00:01:43.938Z,4.00
2022-08-07T00:04:03.380Z,3.65
2022-08-07T00:06:33.466Z,4.13
2022-08-07T00:09:16.355Z,4.32
2022-08-07T00:11:48.124Z,4.38
2022-08-07T00:14:25.482Z,3.50
2022-08-07T00:16:57.678Z,4.13
2022-08-07T00:19:26.189Z,4.10
2022-08-07T00:22:01.926Z,4.15
2022-08-07T00:24:31.809Z,4.05
2022-08-07T00:27:07.392Z,4.15
2022-08-07T00:29:36.998Z,4.40
2022-08-07T00:32:05.997Z,4.55
2022-08-07T00:34:35.644Z,4.10
2022-08-07T00:37:04.904Z,4.47
2022-08-07T00:39:33.804Z,4.47
2022-08-07T00:42:02.108Z,4.35
2022-08-07T00:44:31.528Z,4.38
2022-08-07T00:47:03.970Z,4.35
2022-08-07T00:50:19.781Z,5.32
2022-08-07T00:52:20.275Z,4.45
2022-08-07T00:54:53.784Z,5.35
2022-08-07T00:57:25.295Z,5.03
2022-08-07T00:59:53.774Z,5.45
2022-08-07T01:02:29.348Z,5.20
2022-08-07T01:04:58.811Z,4.82
2022-08-07T01:07:28.250Z,4.95
2022-08-07T01:10:05.776Z,4.72
2022-08-07T01:12:38.847Z,5.13
2022-08-07T01:15:07.410Z,4.70
2022-08-07T01:17:40.040Z,4.80
2022-08-07T01:20:16.519Z,4.72
2022-08-07T01:22:46.762Z,4.88
2022-08-07T01:25:54.756Z,4.63
2022-08-07T01:28:15.675Z,4.60
2022-08-07T01:30:43.181Z,4.75
2022-08-07T01:33:12.256Z,5.43
2022-08-07T01:35:53.828Z,5.15
2022-08-07T01:38:25.525Z,5.15
2022-08-07T01:41:01.134Z,5.25
2022-08-07T01:43:37.956Z,5.20
2022-08-07T01:46:08.331Z,4.97
2022-08-07T01:48:46.624Z,5.85
2022-08-07T01:52:01.897Z,5.50
2022-08-07T01:54:33.326Z,5.22
2022-08-07T01:57:06.820Z,5.28
2022-08-07T01:59:43.949Z,4.95
2022-08-07T02:03:05.709Z,5.25
2022-08-07T02:05:16.037Z,5.40
2022-08-07T02:08:09.590Z,5.60
2022-08-07T02:10:42.493Z,5.00
2022-08-07T02:13:56.403Z,5.20
2022-08-07T02:16:12.141Z,5.85
2022-08-07T02:18:46.798Z,5.60
2022-08-07T02:21:16.446Z,5.40
2022-08-07T02:23:44.734Z,5.88
2022-08-07T02:26:33.105Z,4.95
2022-08-07T02:28:58.652Z,6.05
2022-08-07T02:31:29.339Z,6.05
2022-08-07T02:34:03.295Z,5.32
2022-08-07T02:36:33.955Z,5.57
2022-08-07T02:39:16.783Z,5.47
2022-08-07T02:41:56.646Z,6.10
2022-08-07T02:44:26.917Z,5.75
2022-08-07T02:47:02.655Z,5.93
2022-08-07T02:49:57.628Z,6.35
2022-08-07T02:52:31.070Z,5.60
2022-08-07T02:55:05.597Z,5.90
2022-08-07T02:57:54.087Z,5.13
2022-08-07T03:00:23.113Z,5.80
2022-08-07T03:02:54.376Z,6.10
2022-08-07T03:05:24.643Z,6.80
2022-08-07T03:08:07.215Z,6.18
2022-08-07T03:10:40.993Z,5.65
2022-08-07T03:13:19.546Z,5.97
2022-08-07T03:15:56.309Z,6.05
2022-08-07T03:18:34.618Z,5.53
2022-08-07T03:21:05.241Z,5.97
2022-08-07T03:24:18.089Z,6.47
2022-08-07T03:26:29.011Z,6.25
2022-08-07T03:28:57.023Z,5.70
2022-08-07T03:31:42.858Z,6.65
2022-08-07T03:34:18.493Z,5.60
2022-08-07T03:36:51.349Z,6.57
2022-08-07T03:39:59.298Z,6.95
2022-08-07T03:42:06.382Z,6.55
2022-08-07T03:44:36.301Z,6.22
2022-08-07T03:47:13.398Z,6.43
2022-08-07T03:49:47.691Z,6.88
2022-08-07T03:52:26.667Z,6.85
2022-08-07T03:55:07.527Z,6.35
2022-08-07T04:00:33.439Z,6.28
2022-08-07T04:03:04.416Z,5.80
2022-08-07T04:05:40.635Z,7.20
2022-08-07T04:08:20.947Z,7.28
2022-08-07T04:10:54.665Z,6.78
2022-08-07T04:14:09.562Z,7.30
2022-08-07T04:16:31.266Z,7.03
2022-08-07T04:19:04.114Z,6.88
2022-08-07T04:21:38.891Z,7.65
2022-08-07T04:24:10.293Z,7.35
2022-08-07T04:26:57.953Z,6.78
2022-08-07T04:29:24.674Z,7.38
2022-08-07T04:32:03.426Z,7.53
2022-08-07T04:34:39.444Z,7.35
2022-08-07T04:37:07.965Z,8.38
2022-08-07T04:39:47.863Z,8.02
2022-08-07T04:42:16.752Z,8.98
2022-08-07T04:44:54.528Z,8.80
2022-08-07T04:47:57.242Z,8.63
2022-08-07T04:50:43.460Z,8.05
2022-08-07T04:54:01.370Z,8.55
2022-08-07T04:58:15.000Z,8.70
2022-08-07T05:00:10.824Z,9.53
2022-08-07T05:02:32.931Z,8.90
2022-08-07T05:05:03.035Z,10.55
2022-08-07T05:07:48.471Z,9.43
2022-08-07T05:10:35.885Z,10.68
2022-08-07T05:14:52.898Z,11.38
2022-08-07T05:16:05.218Z,9.75
2022-08-07T05:18:41.209Z,9.75
2022-08-07T05:21:09.983Z,10.30
2022-08-07T05:23:48.402Z,9.30
2022-08-07T05:26:24.131Z,10.13
2022-08-07T05:28:57.316Z,10.23
2022-08-07T05:31:39.638Z,9.50
2022-08-07T05:34:15.674Z,8.98
2022-08-07T05:36:52.701Z,9.13
2022-08-07T05:40:13.549Z,8.48
2022-08-07T05:42:34.492Z,8.27
2022-08-07T05:45:26.117Z,7.13
2022-08-07T05:48:01.448Z,6.93
2022-08-07T05:50:31.647Z,7.80
2022-08-07T05:53:00.821Z,7.53
2022-08-07T05:56:02.023Z,7.82
2022-08-07T05:58:16.729Z,7.38
2022-08-07T06:00:50.935Z,7.38
2022-08-07T06:03:19.747Z,6.60
2022-08-07T06:05:56.520Z,6.97
2022-08-07T06:08:30.115Z,6.75
2022-08-07T06:10:57.621Z,7.82
2022-08-07T06:14:10.664Z,7.63
2022-08-07T06:16:13.684Z,7.30
2022-08-07T06:18:43.439Z,6.75
2022-08-07T06:22:16.402Z,6.70
2022-08-07T06:24:45.968Z,5.93
2022-08-07T06:26:53.273Z,6.07
2022-08-07T06:29:26.803Z,5.93
2022-08-07T06:31:55.404Z,5.45
2022-08-07T06:34:28.049Z,6.00
2022-08-07T06:36:56.923Z,4.72
2022-08-07T06:40:17.322Z,4.43
2022-08-07T06:42:33.024Z,4.38
2022-08-07T06:45:11.477Z,3.85
2022-08-07T06:47:48.406Z,3.95
2022-08-07T06:50:27.283Z,3.85
2022-08-07T06:52:58.964Z,3.17
2022-08-07T06:55:53.963Z,2.87
2022-08-07T06:58:17.904Z,3.40
2022-08-07T07:00:57.284Z,3.25
2022-08-07T07:03:26.421Z,3.13
2022-08-07T07:06:11.013Z,3.25
2022-08-07T07:11:13.822Z,3.13
2022-08-07T07:13:58.293Z,2.80
2022-08-07T07:16:31.023Z,2.35
2022-08-07T07:19:34.028Z,2.53
2022-08-07T07:22:11.707Z,2.63
2022-08-07T07:24:43.197Z,2.03
2022-08-07T07:27:35.598Z,2.40
2022-08-07T07:30:32.583Z,2.50
2022-08-07T07:33:02.686Z,2.42
2022-08-07T07:35:33.521Z,2.00
2022-08-07T07:38:12.087Z,2.40
2022-08-07T07:40:41.444Z,2.13
2022-08-07T07:43:15.156Z,1.92
2022-08-07T07:46:38.577Z,1.83
2022-08-07T07:48:35.699Z,2.08
2022-08-07T07:51:07.894Z,1.50
2022-08-07T07:53:52.184Z,1.60
2022-08-07T07:56:30.276Z,1.65
2022-08-07T07:59:00.176Z,1.50
2022-08-07T08:02:02.047Z,1.75
2022-08-07T08:04:18.837Z,1.30
2022-08-07T08:06:52.311Z,1.73
2022-08-07T08:09:23.312Z,1.42
2022-08-07T08:12:02.576Z,1.00
2022-08-07T08:17:55.676Z,1.20
2022-08-07T08:20:18.751Z,1.00
2022-08-07T08:23:00.827Z,1.30
2022-08-07T08:25:49.358Z,1.38
2022-08-07T08:28:37.357Z,1.50
2022-08-07T08:31:06.698Z,1.35
2022-08-07T08:33:35.070Z,1.20
2022-08-07T08:36:02.679Z,1.15
2022-08-07T08:38:41.098Z,0.90
2022-08-07T08:41:59.022Z,1.35
2022-08-07T08:44:41.194Z,1.08
2022-08-07T08:47:27.509Z,0.90
2022-08-07T08:50:05.602Z,0.60
2022-08-07T08:52:36.263Z,0.80
2022-08-07T08:55:55.379Z,0.80
2022-08-07T08:58:28.294Z,0.85
2022-08-07T09:01:01.220Z,0.60
2022-08-07T09:03:52.604Z,0.60
2022-08-07T09:07:01.070Z,0.70
2022-08-07T09:09:58.311Z,0.65
2022-08-07T09:12:53.534Z,0.50
2022-08-07T09:16:21.760Z,0.47
2022-08-07T09:19:52.880Z,0.70
2022-08-07T09:24:29.201Z,0.50
2022-08-07T09:25:24.271Z,0.50
2022-08-07T09:28:00.159Z,0.50
2022-08-07T09:30:46.274Z,0.30
2022-08-07T09:33:53.163Z,0.68
2022-08-07T09:36:20.501Z,0.60
2022-08-07T09:38:54.642Z,0.40
2022-08-07T09:41:36.229Z,0.38
2022-08-07T09:47:24.874Z,0.22
2022-08-07T09:48:00.251Z,0.70
2022-08-07T09:50:44.535Z,0.50
2022-08-07T09:53:14.722Z,0.52
2022-08-07T09:56:15.103Z,0.50
2022-08-07T09:59:25.879Z,0.95
2022-08-07T10:02:17.271Z,0.80
2022-08-07T10:05:13.989Z,0.95
2022-08-07T10:08:19.678Z,1.20
2022-08-07T10:11:59.463Z,0.80
2022-08-07T10:14:32.166Z,0.88
2022-08-07T10:18:00.769Z,0.98
2022-08-07T10:20:38.691Z,1.33
2022-08-07T10:24:06.702Z,1.23
2022-08-07T10:26:52.983Z,1.42
2022-08-07T10:29:53.029Z,1.58
2022-08-07T10:32:52.898Z,1.42
2022-08-07T10:35:55.638Z,1.70
2022-08-07T10:38:48.166Z,1.50
2022-08-07T10:41:47.226Z,1.58
2022-08-07T10:44:54.687Z,1.50
2022-08-07T10:47:54.403Z,1.83
2022-08-07T10:50:25.952Z,1.02
2022-08-07T10:53:11.413Z,0.85
2022-08-07T10:55:42.696Z,1.20
2022-08-07T10:58:33.203Z,0.90
2022-08-07T11:01:25.474Z,1.15
2022-08-07T11:04:31.567Z,1.25
2022-08-07T11:07:24.532Z,1.20
2022-08-07T11:10:10.333Z,1.10
2022-08-07T11:12:49.579Z,1.13
2022-08-07T11:15:32.346Z,1.13
2022-08-07T11:18:35.398Z,1.35
2022-08-07T11:21:06.623Z,1.20
2022-08-07T11:23:45.452Z,1.05
2022-08-07T11:26:23.284Z,1.52
2022-08-07T11:28:56.873Z,1.10
2022-08-07T11:31:35.021Z,1.40
2022-08-07T11:34:10.272Z,1.30
2022-08-07T11:36:40.481Z,1.00
2022-08-07T11:39:59.094Z,1.50
2022-08-07T11:42:44.956Z,1.30
2022-08-07T11:45:35.670Z,2.03
2022-08-07T11:51:44.699Z,1.23
2022-08-07T11:54:34.907Z,1.50
2022-08-07T11:57:14.020Z,1.40
2022-08-07T12:00:11.220Z,1.20
2022-08-07T12:03:41.470Z,1.02
2022-08-07T12:06:36.879Z,1.10
2022-08-07T12:09:23.277Z,0.90
2022-08-07T12:12:10.026Z,1.00
2022-08-07T12:14:55.587Z,1.27
2022-08-07T12:17:39.361Z,1.23
2022-08-07T12:20:29.757Z,1.10
2022-08-07T12:23:16.677Z,1.10
2022-08-07T12:26:22.043Z,1.02
2022-08-07T12:29:02.519Z,1.40
2022-08-07T12:32:03.882Z,0.90
2022-08-07T12:34:36.075Z,1.17
2022-08-07T12:37:08.140Z,0.90
2022-08-07T12:39:44.024Z,1.00
2022-08-07T12:42:22.879Z,1.00
2022-08-07T12:44:56.942Z,0.93
2022-08-07T12:47:39.736Z,0.80
2022-08-07T12:50:39.564Z,1.05
2022-08-07T12:54:36.307Z,0.98
2022-08-07T12:56:39.486Z,0.90
2022-08-07T12:59:08.145Z,1.08
2022-08-07T13:02:03.080Z,1.20
2022-08-07T13:08:12.002Z,1.10
2022-08-07T13:10:59.663Z,1.00
2022-08-07T13:13:58.373Z,1.20
2022-08-07T13:17:02.286Z,1.25
2022-08-07T13:19:53.855Z,1.00
2022-08-07T13:22:31.376Z,1.23
2022-08-07T13:25:03.568Z,1.17
2022-08-07T13:28:12.864Z,1.50
2022-08-07T13:30:43.475Z,1.40
2022-08-07T13:34:33.503Z,1.40
2022-08-07T13:36:26.216Z,1.50
2022-08-07T13:39:12.771Z,1.90
2022-08-07T13:41:56.757Z,2.30
2022-08-07T13:44:36.815Z,1.70
2022-08-07T13:47:09.565Z,1.30
2022-08-07T13:50:44.008Z,1.52
2022-08-07T13:52:39.674Z,1.38
2022-08-07T13:55:19.548Z,1.30
2022-08-07T13:58:27.452Z,1.65
2022-08-07T14:00:55.184Z,1.70
2022-08-07T14:03:29.342Z,1.30
2022-08-07T14:06:11.566Z,1.50
2022-08-07T14:08:48.667Z,1.83
2022-08-07T14:11:22.846Z,1.52
2022-08-07T14:13:55.362Z,1.88
2022-08-07T14:16:31.056Z,1.77
2022-08-07T14:18:59.573Z,1.50
2022-08-07T14:22:03.372Z,1.67
2022-08-07T14:24:28.645Z,1.58
2022-08-07T14:28:09.478Z,1.38
2022-08-07T14:30:10.247Z,1.38
2022-08-07T14:33:14.941Z,1.70
2022-08-07T14:35:43.344Z,1.20
2022-08-07T14:38:26.195Z,1.42
2022-08-07T14:41:00.737Z,1.10
2022-08-07T14:43:57.781Z,1.20
2022-08-07T14:46:31.357Z,1.10
2022-08-07T14:57:24.329Z,1.23
2022-08-07T15:00:04.649Z,1.40
2022-08-07T15:05:01.752Z,1.27
2022-08-07T15:07:47.609Z,1.15
2022-08-07T15:10:26.164Z,1.20
2022-08-07T15:13:06.160Z,1.38
2022-08-07T15:15:40.715Z,1.25
2022-08-07T15:18:33.895Z,0.98
2022-08-07T15:21:08.223Z,1.80
2022-08-07T15:25:16.380Z,1.60
2022-08-07T15:26:44.740Z,1.65
2022-08-07T15:30:04.745Z,1.42
2022-08-07T15:32:04.847Z,1.80
2022-08-07T15:34:36.932Z,1.45
2022-08-07T15:37:06.941Z,1.35
2022-08-07T15:39:56.321Z,1.30
2022-08-07T15:42:59.683Z,1.30
2022-08-07T15:45:55.859Z,1.20
2022-08-07T15:48:30.832Z,0.90
2022-08-07T15:51:08.513Z,1.35
2022-08-07T15:53:51.893Z,1.25
2022-08-07T15:56:24.288Z,1.55
2022-08-07T15:58:53.834Z,1.17
2022-08-07T16:01:39.126Z,1.17
2022-08-07T16:04:14.588Z,0.80
2022-08-07T16:06:49.006Z,1.00
2022-08-07T16:09:42.188Z,1.13
2022-08-07T16:12:31.798Z,0.98
2022-08-07T16:15:54.579Z,1.33
2022-08-07T16:18:50.078Z,1.50
2022-08-07T16:22:01.584Z,1.00
2022-08-07T16:24:34.833Z,1.00
2022-08-07T16:27:18.031Z,1.20
2022-08-07T16:30:10.069Z,1.00
2022-08-07T16:32:54.834Z,1.00
2022-08-07T16:35:58.751Z,0.80
2022-08-07T16:39:00.605Z,1.05
2022-08-07T16:41:58.701Z,1.20
2022-08-07T16:45:15.094Z,1.35
2022-08-07T16:48:13.628Z,1.13
2022-08-07T16:51:21.608Z,1.00
2022-08-07T16:54:08.998Z,1.35
2022-08-07T16:56:54.413Z,1.48
2022-08-07T16:59:46.785Z,1.10
2022-08-07T17:02:53.192Z,1.20
2022-08-07T17:06:19.302Z,1.02
2022-08-07T17:08:09.188Z,1.73
2022-08-07T17:10:54.333Z,1.20
2022-08-07T17:13:41.824Z,1.10
2022-08-07T17:16:39.743Z,1.20
2022-08-07T17:19:23.982Z,1.40
2022-08-07T17:22:38.095Z,1.33
2022-08-07T17:25:15.401Z,1.60
2022-08-07T17:28:06.782Z,1.35
2022-08-07T17:34:09.216Z,1.20
2022-08-07T17:36:20.708Z,1.10
2022-08-07T17:39:10.533Z,1.25
2022-08-07T17:42:06.812Z,1.23
2022-08-07T17:44:50.110Z,1.70
2022-08-07T17:47:38.045Z,1.25
2022-08-07T17:50:16.568Z,1.10
2022-08-07T17:53:00.503Z,1.30
2022-08-07T17:55:59.922Z,1.30
2022-08-07T17:58:39.870Z,1.48
2022-08-07T18:01:30.546Z,1.00
2022-08-07T18:04:20.205Z,1.20
2022-08-07T18:07:24.617Z,1.50
2022-08-07T18:10:29.061Z,1.38
2022-08-07T18:13:23.143Z,1.20
2022-08-07T18:16:06.447Z,1.40
2022-08-07T18:21:04.454Z,1.20
2022-08-07T18:21:58.583Z,1.30
2022-08-07T18:24:36.206Z,1.50
2022-08-07T18:27:17.463Z,1.33
2022-08-07T18:30:04.727Z,1.30
2022-08-07T18:33:11.029Z,1.30
2022-08-07T18:36:06.084Z,1.30
2022-08-07T18:38:57.756Z,1.48
2022-08-07T18:41:45.686Z,1.40
2022-08-07T18:44:45.931Z,1.42
2022-08-07T18:47:44.407Z,1.50
2022-08-07T18:50:40.582Z,1.60
2022-08-07T18:53:39.323Z,1.80
2022-08-07T18:56:33.877Z,1.35
2022-08-07T18:59:47.365Z,1.50
2022-08-07T19:02:32.059Z,1.70
2022-08-07T19:05:15.453Z,1.98
2022-08-07T19:08:17.896Z,1.60
2022-08-07T19:13:50.330Z,1.40
2022-08-07T19:17:04.900Z,1.80
2022-08-07T19:20:01.811Z,1.58
2022-08-07T19:22:34.684Z,1.70
2022-08-07T19:25:06.552Z,1.48
2022-08-07T19:28:57.235Z,1.50
2022-08-07T19:31:01.412Z,1.50
2022-08-07T19:33:15.711Z,1.52
2022-08-07T19:35:44.201Z,2.15
2022-08-07T19:38:15.826Z,1.70
2022-08-07T19:40:50.797Z,1.63
2022-08-07T19:43:43.366Z,1.70
2022-08-07T19:46:19.302Z,1.88
2022-08-07T19:48:53.993Z,2.03
2022-08-07T19:51:51.163Z,1.65
2022-08-07T19:54:33.256Z,1.50
2022-08-07T19:58:00.891Z,1.77
2022-08-07T19:59:49.656Z,1.90
2022-08-07T20:02:27.385Z,2.33
2022-08-07T20:04:56.202Z,2.08
2022-08-07T20:07:46.121Z,1.60
2022-08-07T20:10:36.511Z,1.65
2022-08-07T20:13:06.109Z,1.70
2022-08-07T20:15:37.225Z,1.80
2022-08-07T20:18:18.422Z,1.73
2022-08-07T20:20:47.116Z,1.70
2022-08-07T20:23:40.644Z,2.22
2022-08-07T20:26:10.090Z,2.00
2022-08-07T20:28:39.097Z,2.00
2022-08-07T20:31:21.734Z,1.88
2022-08-07T20:33:57.437Z,2.25
2022-08-07T20:36:27.581Z,1.88
2022-08-07T20:39:00.779Z,1.90
2022-08-07T20:41:45.504Z,1.77
2022-08-07T20:44:15.475Z,1.92
2022-08-07T20:46:45.153Z,2.03
2022-08-07T20:49:58.255Z,1.90
2022-08-07T20:52:14.048Z,1.90
2022-08-07T20:54:53.785Z,1.90
2022-08-07T20:57:29.183Z,2.10
2022-08-07T21:00:08.289Z,2.20
2022-08-07T21:02:59.975Z,2.22
2022-08-07T21:05:51.200Z,2.35
2022-08-07T21:08:36.523Z,2.20
2022-08-07T21:13:57.430Z,2.13
2022-08-07T21:16:23.258Z,2.45
2022-08-07T21:21:21.395Z,2.00
2022-08-07T21:24:03.641Z,2.20
2022-08-07T21:26:55.974Z,2.08
2022-08-07T21:29:33.471Z,2.58
2022-08-07T21:32:44.121Z,2.25
2022-08-07T21:35:14.846Z,2.05
2022-08-07T21:38:00.466Z,2.60
2022-08-07T21:40:35.869Z,2.30
2022-08-07T21:43:08.563Z,2.30
2022-08-07T21:46:08.512Z,2.10
2022-08-07T21:48:42.287Z,2.53
2022-08-07T21:51:28.482Z,2.50
2022-08-07T21:54:19.996Z,2.50
2022-08-07T21:57:06.010Z,2.83
2022-08-07T22:00:04.924Z,2.90
2022-08-07T22:02:57.992Z,2.70
2022-08-07T22:05:45.473Z,2.70
2022-08-07T22:08:18.286Z,2.90
2022-08-07T22:10:49.752Z,2.83
2022-08-07T22:13:17.397Z,2.60
2022-08-07T22:16:38.624Z,2.78
2022-08-07T22:19:01.134Z,2.80
2022-08-07T22:22:04.849Z,2.92
2022-08-07T22:24:47.854Z,2.58
2022-08-07T22:27:33.995Z,2.85
2022-08-07T22:30:19.709Z,3.13
2022-08-07T22:32:56.252Z,2.92
2022-08-07T22:35:23.417Z,3.15
2022-08-07T22:38:24.097Z,2.67
2022-08-07T22:40:59.933Z,2.78
2022-08-07T22:43:36.594Z,3.20
2022-08-07T22:46:42.851Z,2.78
2022-08-07T22:49:54.590Z,2.97
2022-08-07T22:52:37.570Z,3.00
2022-08-07T22:55:38.681Z,3.42
2022-08-07T22:58:42.451Z,3.20
2022-08-07T23:01:49.594Z,3.20
2022-08-07T23:04:30.078Z,2.90
2022-08-07T23:07:33.659Z,2.40
2022-08-07T23:10:44.817Z,2.80
2022-08-07T23:13:49.167Z,2.90
2022-08-07T23:16:54.825Z,2.63
2022-08-07T23:20:18.034Z,2.88
2022-08-07T23:23:15.773Z,2.75
2022-08-07T23:26:32.676Z,2.85
2022-08-07T23:29:44.054Z,2.40
2022-08-07T23:34:19.694Z,3.30
2022-08-07T23:35:14.186Z,3.05
2022-08-07T23:38:36.473Z,2.92
2022-08-07T23:41:33.068Z,3.03
2022-08-07T23:44:03.393Z,2.85
2022-08-07T23:46:51.493Z,2.70
2022-08-07T23:49:25.586Z,3.00
2022-08-07T23:52:58.764Z,3.28
2022-08-07T23:55:53.476Z,3.25
2022-08-07T23:58:25.461Z,3.30
